createdAt,value
2023-04-22T00:00:02.669Z,1013.51
2023-04-22T00:00:32.367Z,1013.71
2023-04-22T00:01:04.550Z,1013.71
2023-04-22T00:01:36.249Z,1013.71
2023-04-22T00:02:05.003Z,1013.71
2023-04-22T00:02:36.432Z,1013.61
2023-04-22T00:03:38.359Z,1013.51
2023-04-22T00:04:11.141Z,1013.51
2023-04-22T00:04:41.253Z,1013.61
2023-04-22T00:05:11.944Z,1013.61
2023-04-22T00:05:42.259Z,1013.71
2023-04-22T00:06:27.473Z,1013.71
2023-04-22T00:06:44.243Z,1013.71
2023-04-22T00:07:15.001Z,1013.71
2023-04-22T00:07:46.364Z,1013.51
2023-04-22T00:08:27.843Z,1013.51
2023-04-22T00:08:51.255Z,1013.51
2023-04-22T00:10:34.408Z,1013.51
2023-04-22T00:14:41.419Z,1013.61
2023-04-22T00:15:24.945Z,1013.71
2023-04-22T00:16:23.437Z,1013.71
2023-04-22T00:16:51.342Z,1013.41
2023-04-22T00:17:58.418Z,1013.41
2023-04-22T00:18:08.895Z,1013.51
2023-04-22T00:18:56.538Z,1013.61
2023-04-22T00:19:09.515Z,1013.61
2023-04-22T00:19:41.084Z,1013.51
2023-04-22T00:20:19.683Z,1013.51
2023-04-22T00:21:00.243Z,1013.61
2023-04-22T00:21:24.088Z,1013.61
2023-04-22T00:21:49.375Z,1013.41
2023-04-22T00:22:15.265Z,1013.41
2023-04-22T00:22:49.593Z,1013.41
2023-04-22T00:23:16.604Z,1013.41
2023-04-22T00:23:49.283Z,1013.31
2023-04-22T00:24:21.122Z,1013.31
2023-04-22T00:24:52.477Z,1013.31
2023-04-22T00:25:23.138Z,1013.31
2023-04-22T00:25:54.570Z,1013.31
2023-04-22T00:26:23.416Z,1013.31
2023-04-22T00:27:11.042Z,1013.41
2023-04-22T00:27:28.975Z,1013.41
2023-04-22T00:28:07.128Z,1013.51
2023-04-22T00:28:27.857Z,1013.51
2023-04-22T00:28:57.891Z,1013.51
2023-04-22T00:29:28.545Z,1013.51
2023-04-22T00:29:59.223Z,1013.41
2023-04-22T00:30:33.568Z,1013.41
2023-04-22T00:31:19.281Z,1013.51
2023-04-22T00:31:33.446Z,1013.51
2023-04-22T00:32:58.469Z,1013.51
2023-04-22T00:33:12.607Z,1013.21
2023-04-22T00:33:41.489Z,1013.41
2023-04-22T00:34:07.924Z,1013.41
2023-04-22T00:34:38.436Z,1013.21
2023-04-22T00:35:09.696Z,1013.21
2023-04-22T00:35:41.601Z,1013.31
2023-04-22T00:36:48.410Z,1013.51
2023-04-22T00:37:14.094Z,1013.51
2023-04-22T00:37:44.904Z,1013.61
2023-04-22T00:38:15.675Z,1013.61
2023-04-22T00:38:46.318Z,1013.31
2023-04-22T00:39:18.116Z,1013.31
2023-04-22T00:39:48.843Z,1013.51
2023-04-22T00:40:20.018Z,1013.51
2023-04-22T00:40:50.345Z,1013.41
2023-04-22T00:41:23.521Z,1013.41
2023-04-22T00:41:54.236Z,1013.41
2023-04-22T00:42:23.700Z,1013.41
2023-04-22T00:43:04.188Z,1013.51
2023-04-22T00:43:25.645Z,1013.51
2023-04-22T00:43:57.673Z,1013.31
2023-04-22T00:44:27.784Z,1013.31
2023-04-22T00:44:58.505Z,1013.51
2023-04-22T00:45:32.012Z,1013.51
2023-04-22T00:46:02.528Z,1013.31
2023-04-22T00:46:32.160Z,1013.31
2023-04-22T00:47:03.404Z,1013.41
2023-04-22T00:47:33.641Z,1013.51
2023-04-22T00:48:04.626Z,1013.51
2023-04-22T00:48:35.369Z,1013.41
2023-04-22T00:49:06.450Z,1013.41
2023-04-22T00:49:37.880Z,1013.31
2023-04-22T00:50:09.623Z,1013.31
2023-04-22T00:50:39.609Z,1013.21
2023-04-22T00:51:10.553Z,1013.21
2023-04-22T00:51:42.495Z,1013.21
2023-04-22T00:52:13.637Z,1013.21
2023-04-22T00:52:43.266Z,1013.21
2023-04-22T00:53:14.263Z,1013.21
2023-04-22T00:53:45.604Z,1013.31
2023-04-22T00:54:16.940Z,1013.31
2023-04-22T00:54:47.385Z,1013.41
2023-04-22T00:55:18.797Z,1013.41
2023-04-22T00:55:49.387Z,1013.61
2023-04-22T00:56:20.223Z,1013.61
2023-04-22T00:56:52.101Z,1013.61
2023-04-22T00:57:23.474Z,1013.61
2023-04-22T00:57:54.155Z,1013.41
2023-04-22T00:58:24.462Z,1013.41
2023-04-22T00:58:57.526Z,1013.31
2023-04-22T00:59:26.426Z,1013.31
2023-04-22T00:59:57.633Z,1013.31
2023-04-22T01:00:29.063Z,1013.31
2023-04-22T01:00:59.280Z,1013.41
2023-04-22T01:01:30.877Z,1013.41
2023-04-22T01:02:02.342Z,1013.51
2023-04-22T01:02:33.693Z,1013.31
2023-04-22T01:03:04.704Z,1013.31
2023-04-22T01:03:34.764Z,1013.51
2023-04-22T01:04:06.222Z,1013.51
2023-04-22T01:04:36.311Z,1013.31
2023-04-22T01:05:08.495Z,1013.31
2023-04-22T01:05:38.521Z,1013.51
2023-04-22T01:06:09.188Z,1013.51
2023-04-22T01:06:40.585Z,1013.31
2023-04-22T01:07:12.656Z,1013.31
2023-04-22T01:07:43.217Z,1013.61
2023-04-22T01:08:13.741Z,1013.61
2023-04-22T01:08:44.373Z,1013.41
2023-04-22T01:09:15.554Z,1013.41
2023-04-22T01:09:46.237Z,1013.61
2023-04-22T01:10:17.944Z,1013.61
2023-04-22T01:10:48.424Z,1013.51
2023-04-22T01:11:19.255Z,1013.51
2023-04-22T01:11:50.375Z,1013.51
2023-04-22T01:12:21.765Z,1013.51
2023-04-22T01:12:54.122Z,1013.31
2023-04-22T01:13:23.936Z,1013.31
2023-04-22T01:13:54.784Z,1013.51
2023-04-22T01:14:25.759Z,1013.51
2023-04-22T01:14:56.534Z,1013.41
2023-04-22T01:15:28.334Z,1013.41
2023-04-22T01:16:29.345Z,1013.51
2023-04-22T01:17:01.080Z,1013.41
2023-04-22T01:17:31.831Z,1013.41
2023-04-22T01:18:03.985Z,1013.51
2023-04-22T01:18:34.193Z,1013.41
2023-04-22T01:19:04.955Z,1013.41
2023-04-22T01:19:35.735Z,1013.31
2023-04-22T01:20:07.169Z,1013.31
2023-04-22T01:20:38.045Z,1013.51
2023-04-22T01:21:08.281Z,1013.51
2023-04-22T01:21:39.522Z,1013.41
2023-04-22T01:22:11.020Z,1013.41
2023-04-22T01:22:43.193Z,1013.41
2023-04-22T01:23:13.324Z,1013.41
2023-04-22T01:23:43.692Z,1013.61
2023-04-22T01:24:14.618Z,1013.61
2023-04-22T01:24:45.634Z,1013.51
2023-04-22T01:25:16.593Z,1013.51
2023-04-22T01:25:47.718Z,1013.41
2023-04-22T01:26:18.676Z,1013.41
2023-04-22T01:26:49.322Z,1013.41
2023-04-22T01:27:20.562Z,1013.41
2023-04-22T01:27:51.963Z,1013.31
2023-04-22T01:28:23.314Z,1013.31
2023-04-22T01:28:54.450Z,1013.41
2023-04-22T01:29:24.739Z,1013.41
2023-04-22T01:29:55.505Z,1013.41
2023-04-22T01:30:27.198Z,1013.41
2023-04-22T01:30:57.997Z,1013.41
2023-04-22T01:31:28.676Z,1013.41
2023-04-22T01:31:59.596Z,1013.41
2023-04-22T01:32:31.195Z,1013.41
2023-04-22T01:33:01.725Z,1013.51
2023-04-22T01:33:33.540Z,1013.41
2023-04-22T01:34:20.832Z,1013.41
2023-04-22T01:34:35.929Z,1013.41
2023-04-22T01:35:23.592Z,1013.41
2023-04-22T01:35:37.431Z,1013.51
2023-04-22T01:36:08.803Z,1013.51
2023-04-22T01:36:39.337Z,1013.41
2023-04-22T01:37:09.413Z,1013.41
2023-04-22T01:37:58.331Z,1013.41
2023-04-22T01:38:11.426Z,1013.41
2023-04-22T01:38:44.739Z,1013.41
2023-04-22T01:39:14.065Z,1013.41
2023-04-22T01:39:45.092Z,1013.31
2023-04-22T01:40:16.322Z,1013.31
2023-04-22T01:40:46.412Z,1013.41
2023-04-22T01:41:18.129Z,1013.41
2023-04-22T01:41:48.558Z,1013.51
2023-04-22T01:42:19.452Z,1013.51
2023-04-22T01:49:23.903Z,1013.51
2023-04-22T01:49:34.453Z,1013.51
2023-04-22T01:50:05.569Z,1013.51
2023-04-22T01:50:52.946Z,1013.41
2023-04-22T01:51:06.726Z,1013.41
2023-04-22T01:51:57.281Z,1013.51
2023-04-22T01:52:09.734Z,1013.51
2023-04-22T01:52:40.525Z,1013.41
2023-04-22T01:53:10.532Z,1013.41
2023-04-22T01:53:42.151Z,1013.41
2023-04-22T01:54:16.471Z,1013.41
2023-04-22T01:54:44.549Z,1013.31
2023-04-22T01:55:14.745Z,1013.31
2023-04-22T01:55:47.236Z,1013.21
2023-04-22T01:56:17.645Z,1013.21
2023-04-22T01:56:47.860Z,1013.51
2023-04-22T01:57:19.023Z,1013.51
2023-04-22T01:57:49.455Z,1013.21
2023-04-22T01:58:20.925Z,1013.21
2023-04-22T01:58:51.900Z,1013.31
2023-04-22T01:59:24.676Z,1013.31
2023-04-22T01:59:53.975Z,1013.31
2023-04-22T02:00:26.728Z,1013.31
2023-04-22T02:00:56.046Z,1013.51
2023-04-22T02:01:28.349Z,1013.51
2023-04-22T02:01:59.063Z,1013.21
2023-04-22T02:02:29.268Z,1013.21
2023-04-22T02:02:59.756Z,1013.41
2023-04-22T02:07:28.816Z,1013.51
2023-04-22T02:08:01.816Z,1013.61
2023-04-22T02:08:28.048Z,1013.61
2023-04-22T02:08:42.846Z,1013.51
2023-04-22T02:09:11.520Z,1013.51
2023-04-22T02:10:24.658Z,1013.31
2023-04-22T02:11:05.173Z,1013.51
2023-04-22T02:11:16.736Z,1013.51
2023-04-22T02:11:57.947Z,1013.61
2023-04-22T02:12:18.093Z,1013.61
2023-04-22T02:12:48.710Z,1013.51
2023-04-22T02:13:19.902Z,1013.51
2023-04-22T02:13:51.251Z,1013.51
2023-04-22T02:14:22.049Z,1013.51
2023-04-22T02:14:52.487Z,1013.61
2023-04-22T02:15:25.553Z,1013.61
2023-04-22T02:15:55.784Z,1013.41
2023-04-22T02:16:26.357Z,1013.41
2023-04-22T02:16:57.238Z,1013.61
2023-04-22T02:17:27.582Z,1013.61
2023-04-22T02:17:59.223Z,1013.51
2023-04-22T02:18:29.856Z,1013.51
2023-04-22T02:19:00.784Z,1013.61
2023-04-22T02:19:49.772Z,1013.51
2023-04-22T02:20:03.090Z,1013.51
2023-04-22T02:20:35.142Z,1013.61
2023-04-22T02:21:05.571Z,1013.61
2023-04-22T02:21:36.634Z,1013.61
2023-04-22T02:22:07.601Z,1013.61
2023-04-22T02:22:37.986Z,1013.61
2023-04-22T02:23:09.369Z,1013.61
2023-04-22T02:23:40.256Z,1013.51
2023-04-22T02:24:11.524Z,1013.51
2023-04-22T02:24:41.586Z,1013.61
2023-04-22T02:25:13.283Z,1013.61
2023-04-22T02:25:46.487Z,1013.61
2023-04-22T02:26:15.757Z,1013.61
2023-04-22T02:26:46.058Z,1013.61
2023-04-22T02:27:17.137Z,1013.61
2023-04-22T02:27:47.909Z,1013.51
2023-04-22T02:28:19.017Z,1013.51
2023-04-22T02:28:49.620Z,1013.61
2023-04-22T02:29:21.066Z,1013.61
2023-04-22T02:29:52.062Z,1013.51
2023-04-22T02:30:26.616Z,1013.51
2023-04-22T02:30:55.771Z,1013.71
2023-04-22T02:31:26.719Z,1013.71
2023-04-22T02:31:56.627Z,1013.61
2023-04-22T02:32:27.012Z,1013.61
2023-04-22T02:32:57.736Z,1013.51
2023-04-22T02:33:29.267Z,1013.51
2023-04-22T02:34:00.387Z,1013.51
2023-04-22T02:34:36.606Z,1013.51
2023-04-22T02:35:02.711Z,1013.51
2023-04-22T02:35:33.011Z,1013.51
2023-04-22T02:36:05.671Z,1013.51
2023-04-22T02:36:35.784Z,1013.41
2023-04-22T02:37:06.703Z,1013.41
2023-04-22T02:37:37.411Z,1013.41
2023-04-22T02:38:08.596Z,1013.41
2023-04-22T02:38:40.368Z,1013.51
2023-04-22T02:39:10.016Z,1013.51
2023-04-22T02:39:42.936Z,1013.41
2023-04-22T02:40:12.050Z,1013.41
2023-04-22T02:40:43.651Z,1013.41
2023-04-22T02:41:14.733Z,1013.41
2023-04-22T02:41:47.422Z,1013.51
2023-04-22T02:42:17.873Z,1013.51
2023-04-22T02:42:46.971Z,1013.61
2023-04-22T02:43:18.078Z,1013.61
2023-04-22T02:43:48.972Z,1013.41
2023-04-22T02:44:21.123Z,1013.41
2023-04-22T02:44:51.263Z,1013.61
2023-04-22T02:45:22.745Z,1013.61
2023-04-22T02:45:52.657Z,1013.41
2023-04-22T02:46:25.323Z,1013.41
2023-04-22T02:46:55.821Z,1013.41
2023-04-22T02:47:26.073Z,1013.41
2023-04-22T02:47:57.517Z,1013.41
2023-04-22T02:48:27.895Z,1013.41
2023-04-22T02:48:58.783Z,1013.51
2023-04-22T02:49:31.035Z,1013.51
2023-04-22T02:50:01.588Z,1013.41
2023-04-22T02:50:31.758Z,1013.41
2023-04-22T02:51:03.704Z,1013.41
2023-04-22T02:51:35.021Z,1013.61
2023-04-22T02:52:22.323Z,1013.61
2023-04-22T02:52:36.309Z,1013.51
2023-04-22T02:53:07.580Z,1013.51
2023-04-22T02:53:39.214Z,1013.41
2023-04-22T02:54:09.213Z,1013.41
2023-04-22T02:54:40.253Z,1013.41
2023-04-22T02:55:11.967Z,1013.41
2023-04-22T02:55:41.797Z,1013.51
2023-04-22T02:56:13.393Z,1013.51
2023-04-22T02:56:46.016Z,1013.51
2023-04-22T02:57:16.797Z,1013.51
2023-04-22T02:57:47.153Z,1013.71
2023-04-22T02:58:17.442Z,1013.71
2023-04-22T02:58:47.782Z,1013.51
2023-04-22T02:59:19.083Z,1013.51
2023-04-22T02:59:50.383Z,1013.21
2023-04-22T03:00:22.993Z,1013.21
2023-04-22T03:00:52.444Z,1013.51
2023-04-22T03:01:23.100Z,1013.51
2023-04-22T03:01:54.475Z,1013.31
2023-04-22T03:02:25.713Z,1013.31
2023-04-22T03:02:56.814Z,1013.51
2023-04-22T03:03:27.830Z,1013.51
2023-04-22T03:03:59.755Z,1013.51
2023-04-22T03:04:29.425Z,1013.51
2023-04-22T03:05:00.811Z,1013.51
2023-04-22T03:05:33.173Z,1013.51
2023-04-22T03:06:03.903Z,1013.51
2023-04-22T03:06:33.708Z,1013.51
2023-04-22T03:07:21.816Z,1013.51
2023-04-22T03:07:37.168Z,1013.41
2023-04-22T03:08:06.505Z,1013.41
2023-04-22T03:08:37.169Z,1013.51
2023-04-22T03:09:08.200Z,1013.51
2023-04-22T03:09:39.224Z,1013.51
2023-04-22T03:10:29.132Z,1013.51
2023-04-22T03:10:41.642Z,1013.31
2023-04-22T03:11:12.649Z,1013.31
2023-04-22T03:11:44.498Z,1013.51
2023-04-22T03:12:16.223Z,1013.51
2023-04-22T03:12:46.512Z,1013.51
2023-04-22T03:13:16.972Z,1013.51
2023-04-22T03:14:18.182Z,1013.31
2023-04-22T03:14:49.207Z,1013.61
2023-04-22T03:15:21.623Z,1013.61
2023-04-22T03:15:51.672Z,1013.41
2023-04-22T03:16:22.062Z,1013.41
2023-04-22T03:16:53.497Z,1013.61
2023-04-22T03:17:25.370Z,1013.61
2023-04-22T03:17:56.038Z,1013.61
2023-04-22T03:18:26.698Z,1013.61
2023-04-22T03:18:57.419Z,1013.31
2023-04-22T03:19:28.400Z,1013.31
2023-04-22T03:20:00.864Z,1013.41
2023-04-22T03:20:33.509Z,1013.41
2023-04-22T03:21:02.633Z,1013.31
2023-04-22T03:21:36.784Z,1013.31
2023-04-22T03:22:06.077Z,1013.41
2023-04-22T03:22:38.890Z,1013.51
2023-04-22T03:23:10.553Z,1013.51
2023-04-22T03:23:54.466Z,1013.51
2023-04-22T03:24:11.002Z,1013.51
2023-04-22T03:24:40.057Z,1013.51
2023-04-22T03:25:12.698Z,1013.51
2023-04-22T03:25:42.882Z,1013.31
2023-04-22T03:26:13.970Z,1013.31
2023-04-22T03:27:03.829Z,1013.41
2023-04-22T03:27:14.450Z,1013.41
2023-04-22T03:27:47.937Z,1013.31
2023-04-22T03:28:18.171Z,1013.31
2023-04-22T03:28:51.013Z,1013.31
2023-04-22T03:29:21.499Z,1013.31
2023-04-22T03:29:51.579Z,1013.41
2023-04-22T03:30:25.104Z,1013.41
2023-04-22T03:30:54.034Z,1013.31
2023-04-22T03:31:24.365Z,1013.31
2023-04-22T03:31:54.349Z,1013.41
2023-04-22T03:32:28.556Z,1013.41
2023-04-22T03:33:00.760Z,1013.51
2023-04-22T03:33:30.298Z,1013.51
2023-04-22T03:34:02.921Z,1013.41
2023-04-22T03:34:32.034Z,1013.41
2023-04-22T03:35:01.485Z,1013.51
2023-04-22T03:35:31.965Z,1013.51
2023-04-22T03:36:02.611Z,1013.41
2023-04-22T03:36:34.610Z,1013.41
2023-04-22T03:37:04.436Z,1013.31
2023-04-22T03:37:36.315Z,1013.61
2023-04-22T03:38:07.566Z,1013.61
2023-04-22T03:38:36.929Z,1013.61
2023-04-22T03:39:09.805Z,1013.61
2023-04-22T03:39:41.675Z,1013.51
2023-04-22T03:40:14.644Z,1013.51
2023-04-22T03:40:44.444Z,1013.61
2023-04-22T03:41:15.672Z,1013.61
2023-04-22T03:41:45.962Z,1013.51
2023-04-22T03:42:15.468Z,1013.51
2023-04-22T03:42:43.569Z,1013.51
2023-04-22T03:43:16.262Z,1013.51
2023-04-22T03:43:46.506Z,1013.41
2023-04-22T03:44:18.967Z,1013.41
2023-04-22T03:44:52.713Z,1013.41
2023-04-22T03:45:24.250Z,1013.41
2023-04-22T03:45:53.252Z,1013.41
2023-04-22T03:46:23.936Z,1013.41
2023-04-22T03:46:55.256Z,1013.61
2023-04-22T03:47:25.673Z,1013.61
2023-04-22T03:47:57.224Z,1013.41
2023-04-22T03:48:27.250Z,1013.41
2023-04-22T03:48:58.106Z,1013.61
2023-04-22T03:49:27.096Z,1013.61
2023-04-22T03:50:14.645Z,1013.31
2023-04-22T03:50:32.336Z,1013.31
2023-04-22T03:51:05.412Z,1013.41
2023-04-22T03:51:53.458Z,1013.31
2023-04-22T03:52:05.640Z,1013.31
2023-04-22T03:52:35.400Z,1013.31
2023-04-22T03:53:05.733Z,1013.41
2023-04-22T03:53:35.859Z,1013.31
2023-04-22T03:54:07.190Z,1013.31
2023-04-22T03:54:39.587Z,1013.31
2023-04-22T03:55:13.459Z,1013.31
2023-04-22T03:55:44.238Z,1013.61
2023-04-22T03:56:15.327Z,1013.61
2023-04-22T03:56:45.057Z,1013.21
2023-04-22T03:57:21.412Z,1013.21
2023-04-22T03:57:47.496Z,1013.51
2023-04-22T03:58:16.181Z,1013.51
2023-04-22T03:58:47.195Z,1013.41
2023-04-22T03:59:18.542Z,1013.41
2023-04-22T03:59:48.605Z,1013.51
2023-04-22T04:00:37.593Z,1013.21
2023-04-22T04:00:51.526Z,1013.21
2023-04-22T04:01:23.790Z,1013.21
2023-04-22T04:01:55.966Z,1013.41
2023-04-22T04:02:24.238Z,1013.41
2023-04-22T04:02:55.008Z,1013.31
2023-04-22T04:03:29.531Z,1013.31
2023-04-22T04:03:59.812Z,1013.41
2023-04-22T04:04:27.475Z,1013.41
2023-04-22T04:05:01.497Z,1013.31
2023-04-22T04:05:30.166Z,1013.31
2023-04-22T04:06:00.436Z,1013.31
2023-04-22T04:06:34.770Z,1013.31
2023-04-22T04:07:04.937Z,1013.41
2023-04-22T04:07:36.212Z,1013.41
2023-04-22T04:08:04.310Z,1013.41
2023-04-22T04:08:37.208Z,1013.41
2023-04-22T04:09:24.660Z,1013.41
2023-04-22T04:09:42.392Z,1013.51
2023-04-22T04:10:10.316Z,1013.51
2023-04-22T04:10:43.476Z,1013.41
2023-04-22T04:11:12.423Z,1013.41
2023-04-22T04:12:13.541Z,1013.10
2023-04-22T04:12:47.102Z,1013.41
2023-04-22T04:13:17.297Z,1013.41
2023-04-22T04:13:46.236Z,1013.41
2023-04-22T04:14:16.569Z,1013.41
2023-04-22T04:15:05.341Z,1013.31
2023-04-22T04:15:20.719Z,1013.31
2023-04-22T04:15:51.040Z,1013.41
2023-04-22T04:16:19.302Z,1013.41
2023-04-22T04:16:52.832Z,1013.51
2023-04-22T04:17:24.276Z,1013.51
2023-04-22T04:17:54.891Z,1013.41
2023-04-22T04:18:24.279Z,1013.41
2023-04-22T04:18:54.862Z,1013.21
2023-04-22T04:19:25.156Z,1013.21
2023-04-22T04:19:56.336Z,1013.51
2023-04-22T04:20:27.784Z,1013.51
2023-04-22T04:20:57.710Z,1013.41
2023-04-22T04:21:30.592Z,1013.41
2023-04-22T04:22:02.443Z,1013.41
2023-04-22T04:22:32.246Z,1013.41
2023-04-22T04:23:03.118Z,1013.41
2023-04-22T04:23:34.979Z,1013.41
2023-04-22T04:24:04.957Z,1013.41
2023-04-22T04:24:35.428Z,1013.71
2023-04-22T04:25:06.811Z,1013.71
2023-04-22T04:25:36.600Z,1013.31
2023-04-22T04:26:09.309Z,1013.31
2023-04-22T04:26:40.747Z,1013.31
2023-04-22T04:27:11.920Z,1013.31
2023-04-22T04:27:41.737Z,1013.51
2023-04-22T04:28:12.935Z,1013.51
2023-04-22T04:28:43.942Z,1013.41
2023-04-22T04:29:14.575Z,1013.41
2023-04-22T04:29:45.430Z,1013.41
2023-04-22T04:30:17.564Z,1013.41
2023-04-22T04:30:47.704Z,1013.41
2023-04-22T04:31:20.108Z,1013.41
2023-04-22T04:31:50.658Z,1013.51
2023-04-22T04:32:22.502Z,1013.51
2023-04-22T04:32:52.864Z,1013.41
2023-04-22T04:33:24.292Z,1013.41
2023-04-22T04:33:53.903Z,1013.71
2023-04-22T04:34:24.817Z,1013.71
2023-04-22T04:34:55.416Z,1013.31
2023-04-22T04:35:26.112Z,1013.31
2023-04-22T04:35:57.173Z,1013.31
2023-04-22T04:36:27.942Z,1013.31
2023-04-22T04:37:00.087Z,1013.51
2023-04-22T04:37:32.055Z,1013.51
2023-04-22T04:38:34.487Z,1013.61
2023-04-22T04:39:03.137Z,1013.61
2023-04-22T04:39:34.212Z,1013.51
2023-04-22T04:40:05.481Z,1013.51
2023-04-22T04:40:35.850Z,1013.41
2023-04-22T04:41:07.326Z,1013.41
2023-04-22T04:41:38.145Z,1013.51
2023-04-22T04:42:11.701Z,1013.51
2023-04-22T04:42:42.586Z,1013.41
2023-04-22T04:43:12.459Z,1013.41
2023-04-22T04:43:42.590Z,1013.61
2023-04-22T04:44:13.535Z,1013.61
2023-04-22T04:45:16.134Z,1013.51
2023-04-22T04:45:48.542Z,1013.51
2023-04-22T04:46:17.263Z,1013.51
2023-04-22T04:46:47.718Z,1013.61
2023-04-22T04:47:20.240Z,1013.61
2023-04-22T04:47:52.122Z,1013.41
2023-04-22T04:48:53.414Z,1013.41
2023-04-22T04:49:23.996Z,1013.41
2023-04-22T04:49:54.550Z,1013.41
2023-04-22T04:50:26.107Z,1013.41
2023-04-22T04:50:56.396Z,1013.51
2023-04-22T04:51:27.243Z,1013.51
2023-04-22T04:51:58.251Z,1013.51
2023-04-22T04:52:30.912Z,1013.51
2023-04-22T04:53:02.859Z,1013.31
2023-04-22T04:53:33.062Z,1013.31
2023-04-22T04:54:03.940Z,1013.51
2023-04-22T04:54:34.121Z,1013.51
2023-04-22T04:55:04.511Z,1013.51
2023-04-22T04:55:35.165Z,1013.51
2023-04-22T04:56:06.429Z,1013.51
2023-04-22T04:56:37.065Z,1013.31
2023-04-22T04:57:08.633Z,1013.31
2023-04-22T04:57:38.948Z,1013.41
2023-04-22T04:58:13.043Z,1013.41
2023-04-22T04:59:12.994Z,1013.41
2023-04-22T04:59:43.198Z,1013.51
2023-04-22T05:00:16.040Z,1013.51
2023-04-22T05:00:45.964Z,1013.51
2023-04-22T05:01:16.546Z,1013.51
2023-04-22T05:01:46.612Z,1013.41
2023-04-22T05:02:17.996Z,1013.41
2023-04-22T05:02:50.199Z,1013.51
2023-04-22T05:03:22.333Z,1013.51
2023-04-22T05:03:52.265Z,1013.51
2023-04-22T05:04:22.927Z,1013.51
2023-04-22T05:04:53.451Z,1013.41
2023-04-22T05:05:24.300Z,1013.41
2023-04-22T05:05:56.178Z,1013.51
2023-04-22T05:06:25.619Z,1013.51
2023-04-22T05:06:56.966Z,1013.51
2023-04-22T05:07:27.926Z,1013.51
2023-04-22T05:07:58.493Z,1013.51
2023-04-22T05:08:31.775Z,1013.51
2023-04-22T05:09:01.811Z,1013.41
2023-04-22T05:09:32.576Z,1013.41
2023-04-22T05:10:06.662Z,1013.51
2023-04-22T05:10:43.761Z,1013.41
2023-04-22T05:11:08.799Z,1013.41
2023-04-22T05:11:39.398Z,1013.51
2023-04-22T05:12:10.346Z,1013.51
2023-04-22T05:12:39.062Z,1013.51
2023-04-22T05:13:10.170Z,1013.51
2023-04-22T05:13:46.615Z,1013.51
2023-04-22T05:14:14.321Z,1013.51
2023-04-22T05:14:46.150Z,1013.31
2023-04-22T05:15:16.440Z,1013.31
2023-04-22T05:15:47.403Z,1013.41
2023-04-22T05:16:31.515Z,1013.41
2023-04-22T05:16:50.387Z,1013.51
2023-04-22T05:17:22.230Z,1013.51
2023-04-22T05:17:50.181Z,1013.31
2023-04-22T05:18:20.407Z,1013.31
2023-04-22T05:18:52.262Z,1013.41
2023-04-22T05:19:24.481Z,1013.41
2023-04-22T05:19:57.775Z,1013.31
2023-04-22T05:20:27.304Z,1013.31
2023-04-22T05:20:57.148Z,1013.51
2023-04-22T05:21:30.392Z,1013.51
2023-04-22T05:21:59.782Z,1013.21
2023-04-22T05:22:31.466Z,1013.21
2023-04-22T05:23:02.016Z,1013.51
2023-04-22T05:23:31.722Z,1013.51
2023-04-22T05:24:04.428Z,1013.51
2023-04-22T05:24:35.064Z,1013.51
2023-04-22T05:25:04.738Z,1013.41
2023-04-22T05:25:37.777Z,1013.21
2023-04-22T05:26:08.303Z,1013.21
2023-04-22T05:26:39.508Z,1013.51
2023-04-22T05:27:08.577Z,1013.51
2023-04-22T05:27:39.358Z,1013.21
2023-04-22T05:28:11.278Z,1013.21
2023-04-22T05:28:42.245Z,1013.31
2023-04-22T05:29:12.924Z,1013.31
2023-04-22T05:29:45.959Z,1013.61
2023-04-22T05:30:19.250Z,1013.61
2023-04-22T05:30:47.211Z,1013.31
2023-04-22T05:31:18.524Z,1013.31
2023-04-22T05:31:48.491Z,1013.41
2023-04-22T05:32:20.937Z,1013.41
2023-04-22T05:32:50.140Z,1013.51
2023-04-22T05:33:22.123Z,1013.51
2023-04-22T05:33:52.759Z,1013.51
2023-04-22T05:34:52.692Z,1013.41
2023-04-22T05:35:28.261Z,1013.41
2023-04-22T05:36:02.534Z,1013.51
2023-04-22T05:36:31.773Z,1013.51
2023-04-22T05:36:59.581Z,1013.51
2023-04-22T05:37:29.441Z,1013.51
2023-04-22T05:38:01.473Z,1013.51
2023-04-22T05:38:30.556Z,1013.51
2023-04-22T05:39:01.609Z,1013.51
2023-04-22T05:39:32.177Z,1013.51
2023-04-22T05:40:03.917Z,1013.51
2023-04-22T05:40:35.811Z,1013.51
2023-04-22T05:41:08.717Z,1013.51
2023-04-22T05:41:37.624Z,1013.31
2023-04-22T05:42:08.870Z,1013.31
2023-04-22T05:42:40.242Z,1013.61
2023-04-22T05:43:14.064Z,1013.61
2023-04-22T05:43:41.149Z,1013.51
2023-04-22T05:44:12.579Z,1013.51
2023-04-22T05:44:40.640Z,1013.41
2023-04-22T05:45:23.720Z,1013.41
2023-04-22T05:45:43.097Z,1013.21
2023-04-22T05:46:14.379Z,1013.21
2023-04-22T05:46:46.424Z,1013.51
2023-04-22T05:47:17.960Z,1013.51
2023-04-22T05:47:49.562Z,1013.41
2023-04-22T05:48:19.200Z,1013.41
2023-04-22T05:48:51.361Z,1013.41
2023-04-22T05:49:53.163Z,1013.41
2023-04-22T05:50:26.345Z,1013.61
2023-04-22T05:50:53.525Z,1013.41
2023-04-22T05:51:25.747Z,1013.41
2023-04-22T05:51:58.856Z,1013.61
2023-04-22T05:52:29.567Z,1013.61
2023-04-22T05:53:01.174Z,1013.51
2023-04-22T05:53:31.911Z,1013.51
2023-04-22T05:54:02.662Z,1013.71
2023-04-22T05:54:33.835Z,1013.71
2023-04-22T05:55:01.399Z,1013.51
2023-04-22T05:55:32.759Z,1013.51
2023-04-22T05:56:05.377Z,1013.41
2023-04-22T05:56:34.791Z,1013.41
2023-04-22T05:57:12.250Z,1013.41
2023-04-22T05:57:39.113Z,1013.61
2023-04-22T05:58:11.014Z,1013.61
2023-04-22T05:58:42.238Z,1013.71
2023-04-22T05:59:12.362Z,1013.71
2023-04-22T05:59:42.876Z,1013.51
2023-04-22T06:00:15.273Z,1013.51
2023-04-22T06:00:41.448Z,1013.71
2023-04-22T06:01:12.383Z,1013.71
2023-04-22T06:01:43.309Z,1013.51
2023-04-22T06:02:15.317Z,1013.51
2023-04-22T06:02:45.947Z,1013.51
2023-04-22T06:03:16.158Z,1013.51
2023-04-22T06:03:50.375Z,1013.82
2023-04-22T06:04:18.974Z,1013.82
2023-04-22T06:04:50.484Z,1013.71
2023-04-22T06:05:20.848Z,1013.71
2023-04-22T06:05:51.408Z,1013.61
2023-04-22T06:06:22.984Z,1013.61
2023-04-22T06:06:53.833Z,1013.61
2023-04-22T06:07:25.030Z,1013.61
2023-04-22T06:07:56.491Z,1013.71
2023-04-22T06:08:29.485Z,1013.71
2023-04-22T06:08:58.412Z,1013.61
2023-04-22T06:09:29.860Z,1013.61
2023-04-22T06:10:05.053Z,1013.71
2023-04-22T06:10:31.354Z,1013.71
2023-04-22T06:11:20.195Z,1013.71
2023-04-22T06:11:32.169Z,1013.71
2023-04-22T06:12:03.878Z,1013.71
2023-04-22T06:12:34.212Z,1013.61
2023-04-22T06:13:06.240Z,1013.61
2023-04-22T06:13:37.731Z,1013.61
2023-04-22T06:14:09.016Z,1013.61
2023-04-22T06:14:41.067Z,1013.61
2023-04-22T06:15:12.486Z,1013.61
2023-04-22T06:15:41.268Z,1013.71
2023-04-22T06:16:12.262Z,1013.71
2023-04-22T06:17:01.270Z,1013.51
2023-04-22T06:17:13.653Z,1013.51
2023-04-22T06:17:44.820Z,1013.61
2023-04-22T06:18:15.703Z,1013.61
2023-04-22T06:18:48.876Z,1013.61
2023-04-22T06:19:21.628Z,1013.61
2023-04-22T06:19:51.496Z,1013.61
2023-04-22T06:20:22.469Z,1013.61
2023-04-22T06:20:52.696Z,1013.61
2023-04-22T06:21:22.272Z,1013.61
2023-04-22T06:21:53.947Z,1013.51
2023-04-22T06:22:24.634Z,1013.51
2023-04-22T06:22:54.347Z,1013.61
2023-04-22T06:23:32.579Z,1013.61
2023-04-22T06:23:58.360Z,1013.51
2023-04-22T06:24:29.781Z,1013.51
2023-04-22T06:25:01.791Z,1013.41
2023-04-22T06:25:30.744Z,1013.41
2023-04-22T06:26:02.320Z,1013.51
2023-04-22T06:26:31.765Z,1013.51
2023-04-22T06:27:03.706Z,1013.41
2023-04-22T06:27:33.541Z,1013.61
2023-04-22T06:28:05.320Z,1013.61
2023-04-22T06:28:35.287Z,1013.71
2023-04-22T06:29:09.499Z,1013.71
2023-04-22T06:29:40.827Z,1013.71
2023-04-22T06:30:12.538Z,1013.71
2023-04-22T06:30:42.126Z,1013.51
2023-04-22T06:31:12.771Z,1013.51
2023-04-22T06:31:42.652Z,1013.31
2023-04-22T06:32:31.387Z,1013.31
2023-04-22T06:32:44.121Z,1013.61
2023-04-22T06:33:46.172Z,1013.51
2023-04-22T06:34:17.369Z,1013.51
2023-04-22T06:34:51.400Z,1013.61
2023-04-22T06:35:20.958Z,1013.61
2023-04-22T06:35:52.471Z,1013.41
2023-04-22T06:36:23.237Z,1013.41
2023-04-22T06:36:52.382Z,1013.71
2023-04-22T06:37:22.902Z,1013.71